createdAt,value
2018-12-01T00:01:00.413Z,205.43
2018-12-01T00:03:31.539Z,123.60
2018-12-01T00:06:01.875Z,220.50
2018-12-01T00:08:31.601Z,183.63
2018-12-01T00:11:01.937Z,239.43
2018-12-01T00:13:31.339Z,92.47
2018-12-01T00:16:01.622Z,148.60
2018-12-01T00:18:30.714Z,142.30
2018-12-01T00:20:59.689Z,184.13
2018-12-01T00:23:28.813Z,80.63
2018-12-01T00:25:58.254Z,89.53
2018-12-01T00:28:27.841Z,97.70
2018-12-01T00:30:57.601Z,120.67
2018-12-01T00:33:26.048Z,172.00
2018-12-01T00:35:55.289Z,90.27
2018-12-01T00:38:24.526Z,107.43
2018-12-01T00:40:53.645Z,153.67
2018-12-01T00:43:23.274Z,165.27
2018-12-01T00:45:52.455Z,91.50
2018-12-01T00:48:21.833Z,103.57
2018-12-01T00:50:51.287Z,94.30
2018-12-01T00:53:20.505Z,107.17
2018-12-01T00:55:50.062Z,127.93
2018-12-01T00:58:18.705Z,88.80
2018-12-01T01:00:47.501Z,131.50
2018-12-01T01:03:16.381Z,74.73
2018-12-01T01:05:45.426Z,85.90
2018-12-01T01:08:14.123Z,119.90
2018-12-01T01:10:43.204Z,134.00
2018-12-01T01:13:12.800Z,81.50
2018-12-01T01:15:42.022Z,89.03
2018-12-01T01:18:11.037Z,72.40
2018-12-01T01:20:40.620Z,68.07
2018-12-01T01:23:10.056Z,77.77
2018-12-01T01:25:41.351Z,58.53
2018-12-01T01:28:11.284Z,63.47
2018-12-01T01:30:39.735Z,110.80
2018-12-01T01:33:19.313Z,169.37
2018-12-01T01:35:48.456Z,77.60
2018-12-01T01:38:17.976Z,117.43
2018-12-01T01:40:46.950Z,90.73
2018-12-01T01:43:16.221Z,86.70
2018-12-01T01:45:45.124Z,78.73
2018-12-01T01:48:14.302Z,115.47
2018-12-01T01:50:43.436Z,71.90
2018-12-01T01:53:12.331Z,147.07
2018-12-01T01:55:40.787Z,164.63
2018-12-01T01:58:10.490Z,109.40
2018-12-01T02:00:39.422Z,94.90
2018-12-01T02:03:08.787Z,74.33
2018-12-01T02:05:37.867Z,62.87
2018-12-01T02:08:06.512Z,61.80
2018-12-01T02:10:35.674Z,60.47
2018-12-01T02:13:04.120Z,92.80
2018-12-01T02:15:33.321Z,153.40
2018-12-01T02:18:02.049Z,129.43
2018-12-01T02:20:31.511Z,166.83
2018-12-01T02:23:02.461Z,99.80
2018-12-01T02:25:31.738Z,125.43
2018-12-01T02:28:00.617Z,102.17
2018-12-01T02:30:29.680Z,129.87
2018-12-01T02:32:58.884Z,119.07
2018-12-01T02:35:29.244Z,79.73
2018-12-01T02:37:57.918Z,178.07
2018-12-01T02:40:27.114Z,160.87
2018-12-01T02:42:56.478Z,187.10
2018-12-01T02:45:36.105Z,107.60
2018-12-01T02:48:05.418Z,215.97
2018-12-01T02:50:34.210Z,208.97
2018-12-01T02:53:03.270Z,152.77
2018-12-01T02:55:31.876Z,258.50
2018-12-01T02:58:01.845Z,153.37
2018-12-01T03:00:31.450Z,139.43
2018-12-01T03:03:00.621Z,286.83
2018-12-01T03:05:29.950Z,319.57
2018-12-01T03:07:58.990Z,262.53
2018-12-01T03:10:28.178Z,162.57
2018-12-01T03:12:57.082Z,261.17
2018-12-01T03:15:27.165Z,188.83
2018-12-01T03:17:56.220Z,204.87
2018-12-01T03:20:26.121Z,197.97
2018-12-01T03:22:55.504Z,177.73
2018-12-01T03:25:24.872Z,233.90
2018-12-01T03:27:54.800Z,251.37
2018-12-01T03:30:24.989Z,162.33
2018-12-01T03:32:55.020Z,123.47
2018-12-01T03:35:24.537Z,164.33
2018-12-01T03:37:53.955Z,152.07
2018-12-01T03:40:23.226Z,117.10
2018-12-01T03:42:53.223Z,103.20
2018-12-01T03:45:23.037Z,154.70
2018-12-01T03:47:51.746Z,179.93
2018-12-01T03:50:23.773Z,151.53
2018-12-01T03:52:55.542Z,139.30
2018-12-01T03:55:27.706Z,118.67
2018-12-01T03:57:57.222Z,88.87
2018-12-01T04:00:28.347Z,186.67
2018-12-01T04:02:58.515Z,161.23
2018-12-01T04:05:27.447Z,156.50
2018-12-01T04:07:56.138Z,137.37
2018-12-01T04:10:25.314Z,144.07
2018-12-01T04:12:54.759Z,117.13
2018-12-01T04:15:23.860Z,86.27
2018-12-01T04:17:52.533Z,178.90
2018-12-01T04:20:21.375Z,101.63
2018-12-01T04:22:50.754Z,209.03
2018-12-01T04:25:19.256Z,143.17
2018-12-01T04:27:49.062Z,126.47
2018-12-01T04:30:19.845Z,185.43
2018-12-01T04:32:49.807Z,270.47
2018-12-01T04:35:22.239Z,245.80
2018-12-01T04:37:56.600Z,249.87
2018-12-01T04:40:26.179Z,231.30
2018-12-01T04:42:55.409Z,169.53
2018-12-01T04:45:24.247Z,86.77
2018-12-01T04:47:53.233Z,80.43
2018-12-01T04:50:21.928Z,106.30
2018-12-01T04:52:51.163Z,112.80
2018-12-01T04:55:20.560Z,110.63
2018-12-01T04:57:49.632Z,115.03
2018-12-01T05:00:20.115Z,126.80
2018-12-01T05:02:49.716Z,92.37
2018-12-01T05:05:20.275Z,186.17
2018-12-01T05:07:48.857Z,224.13
2018-12-01T05:10:18.072Z,128.60
2018-12-01T05:12:47.143Z,177.73
2018-12-01T05:15:16.382Z,213.23
2018-12-01T05:17:45.145Z,183.27
2018-12-01T05:20:17.044Z,97.60
2018-12-01T05:22:46.919Z,104.40
2018-12-01T05:25:17.182Z,103.40
2018-12-01T05:27:46.221Z,91.70
2018-12-01T05:30:14.698Z,110.97
2018-12-01T05:35:36.695Z,147.17
2018-12-01T05:38:05.783Z,159.33
2018-12-01T05:40:34.631Z,179.50
2018-12-01T05:43:03.853Z,98.00
2018-12-01T05:45:33.269Z,99.20
2018-12-01T05:48:02.853Z,59.83
2018-12-01T05:50:32.164Z,104.43
2018-12-01T05:53:02.122Z,87.07
2018-12-01T05:55:31.084Z,88.23
2018-12-01T05:57:59.524Z,77.67
2018-12-01T06:00:28.817Z,78.57
2018-12-01T06:02:58.056Z,94.33
2018-12-01T06:05:27.088Z,85.67
2018-12-01T06:07:55.982Z,72.93
2018-12-01T06:10:25.377Z,79.67
2018-12-01T06:12:54.107Z,89.10
2018-12-01T06:15:23.000Z,182.73
2018-12-01T06:17:52.510Z,151.80
2018-12-01T06:20:22.543Z,301.70
2018-12-01T06:22:51.895Z,206.80
2018-12-01T06:25:21.796Z,122.03
2018-12-01T06:27:51.960Z,260.70
2018-12-01T06:30:21.210Z,228.77
2018-12-01T06:32:50.946Z,178.27
2018-12-01T06:35:19.757Z,103.57
2018-12-01T06:37:48.439Z,104.97
2018-12-01T06:40:19.177Z,99.17
2018-12-01T06:42:47.716Z,117.07
2018-12-01T06:45:17.827Z,93.67
2018-12-01T06:47:46.667Z,145.33
2018-12-01T06:50:18.200Z,266.80
2018-12-01T06:52:47.619Z,117.63
2018-12-01T06:55:16.385Z,232.73
2018-12-01T06:57:46.478Z,213.67
2018-12-01T07:00:17.206Z,203.50
2018-12-01T07:02:46.399Z,271.10
2018-12-01T07:05:16.100Z,177.40
2018-12-01T07:08:19.359Z,206.67
2018-12-01T07:10:49.965Z,303.87
2018-12-01T07:13:41.453Z,157.50
2018-12-01T07:16:43.727Z,131.07
2018-12-01T07:19:42.443Z,182.93
2018-12-01T07:22:13.335Z,147.20
2018-12-01T07:24:44.424Z,209.80
2018-12-01T07:27:13.642Z,304.40
2018-12-01T07:29:43.141Z,246.97
2018-12-01T07:32:12.118Z,255.07
2018-12-01T07:35:10.947Z,304.27
2018-12-01T07:38:05.769Z,159.07
2018-12-01T07:41:00.238Z,117.43
2018-12-01T07:43:45.114Z,103.97
2018-12-01T07:46:46.215Z,382.33
2018-12-01T07:49:43.327Z,101.43
2018-12-01T07:52:13.619Z,73.97
2018-12-01T07:55:07.711Z,157.00
2018-12-01T07:58:04.758Z,140.50
2018-12-01T08:01:04.459Z,147.37
2018-12-01T08:03:45.755Z,71.37
2018-12-01T08:06:14.509Z,137.30
2018-12-01T08:09:16.672Z,172.83
2018-12-01T08:11:46.392Z,97.40
2018-12-01T08:15:17.079Z,109.67
2018-12-01T08:17:47.763Z,110.63
2018-12-01T08:20:17.745Z,164.93
2018-12-01T08:22:48.795Z,141.80
2018-12-01T08:25:21.391Z,182.73
2018-12-01T08:27:53.071Z,110.43
2018-12-01T08:30:24.320Z,125.30
2018-12-01T08:32:54.105Z,101.93
2018-12-01T08:35:26.144Z,64.23
2018-12-01T08:37:55.670Z,67.33
2018-12-01T08:40:29.959Z,66.40
2018-12-01T08:42:59.919Z,69.73
2018-12-01T08:45:30.383Z,85.97
2018-12-01T08:48:24.528Z,65.03
2018-12-01T08:51:23.665Z,65.70
2018-12-01T08:54:23.947Z,67.10
2018-12-01T08:57:18.808Z,65.50
2018-12-01T09:00:13.498Z,64.37
2018-12-01T09:02:43.143Z,66.10
2018-12-01T09:05:11.601Z,68.83
2018-12-01T09:07:42.805Z,57.63
2018-12-01T09:10:16.904Z,66.17
2018-12-01T09:12:46.502Z,59.57
2018-12-01T09:15:15.655Z,66.17
2018-12-01T09:17:45.390Z,72.40
2018-12-01T09:20:15.215Z,72.23
2018-12-01T09:22:46.859Z,68.03
2018-12-01T09:25:36.057Z,67.30
2018-12-01T09:28:18.001Z,69.23
2018-12-01T09:30:48.682Z,77.03
2018-12-01T09:33:18.886Z,68.60
2018-12-01T09:36:11.958Z,54.87
2018-12-01T09:39:08.087Z,59.50
2018-12-01T09:42:01.634Z,68.13
2018-12-01T09:44:34.124Z,67.20
2018-12-01T09:47:32.632Z,68.00
2018-12-01T09:50:28.853Z,52.93
2018-12-01T09:53:14.867Z,54.27
2018-12-01T09:56:06.437Z,67.07
2018-12-01T09:58:36.035Z,47.17
2018-12-01T10:01:06.165Z,54.13
2018-12-01T10:03:36.226Z,53.07
2018-12-01T10:06:05.723Z,54.43
2018-12-01T10:08:35.557Z,60.63
2018-12-01T10:11:06.279Z,49.30
2018-12-01T10:13:36.806Z,53.10
2018-12-01T10:16:07.133Z,51.00
2018-12-01T10:18:37.532Z,49.53
2018-12-01T10:21:07.379Z,55.20
2018-12-01T10:23:37.756Z,51.27
2018-12-01T10:26:09.231Z,59.77
2018-12-01T10:28:40.090Z,49.10
2018-12-01T10:31:09.667Z,55.70
2018-12-01T10:33:39.439Z,42.13
2018-12-01T10:36:09.917Z,44.70
2018-12-01T10:38:39.675Z,44.13
2018-12-01T10:41:39.479Z,41.93
2018-12-01T10:44:12.837Z,39.40
2018-12-01T10:47:05.674Z,35.43
2018-12-01T10:49:43.640Z,38.97
2018-12-01T10:52:13.831Z,36.70
2018-12-01T10:54:46.444Z,35.63
2018-12-01T10:57:15.788Z,33.90
2018-12-01T10:59:44.947Z,37.57
2018-12-01T11:02:18.551Z,32.80
2018-12-01T11:04:47.845Z,31.53
2018-12-01T11:07:17.314Z,35.60
2018-12-01T11:09:46.182Z,33.83
2018-12-01T11:12:15.301Z,29.23
2018-12-01T11:14:44.698Z,30.40
2018-12-01T11:17:14.074Z,30.00
2018-12-01T11:19:43.120Z,30.03
2018-12-01T11:22:13.229Z,27.70
2018-12-01T11:24:42.768Z,37.53
2018-12-01T11:27:12.108Z,32.13
2018-12-01T11:29:43.643Z,27.07
2018-12-01T11:32:14.977Z,28.73
2018-12-01T11:34:45.779Z,28.93
2018-12-01T11:37:15.307Z,24.37
2018-12-01T11:39:45.707Z,27.67
2018-12-01T11:42:15.518Z,23.63
2018-12-01T11:44:45.276Z,20.77
2018-12-01T11:47:15.571Z,18.63
2018-12-01T11:49:45.804Z,24.00
2018-12-01T11:52:16.544Z,17.57
2018-12-01T11:54:46.409Z,19.03
2018-12-01T11:57:15.954Z,24.50
2018-12-01T11:59:45.296Z,26.07
2018-12-01T12:02:14.982Z,24.33
2018-12-01T12:04:43.456Z,26.37
2018-12-01T12:07:23.235Z,28.83
2018-12-01T12:09:52.277Z,28.77
2018-12-01T12:12:20.888Z,33.23
2018-12-01T12:14:52.060Z,33.63
2018-12-01T12:17:19.625Z,31.20
2018-12-01T12:19:48.297Z,43.13
2018-12-01T12:22:17.798Z,36.27
2018-12-01T12:24:47.194Z,36.77
2018-12-01T12:27:16.588Z,38.57
2018-12-01T12:29:45.626Z,33.00
2018-12-01T12:32:14.992Z,31.73
2018-12-01T12:34:44.558Z,30.43
2018-12-01T12:37:13.744Z,26.20
2018-12-01T12:39:43.366Z,24.37
2018-12-01T12:42:13.512Z,22.20
2018-12-01T12:44:43.202Z,23.30
2018-12-01T12:47:13.492Z,22.27
2018-12-01T12:49:43.853Z,21.20
2018-12-01T12:52:14.800Z,20.40
2018-12-01T12:54:44.629Z,20.00
2018-12-01T12:57:14.422Z,19.87
2018-12-01T12:59:43.870Z,17.23
2018-12-01T13:02:12.438Z,19.40
2018-12-01T13:04:41.042Z,14.37
2018-12-01T13:07:09.948Z,13.40
2018-12-01T13:09:38.962Z,17.60
2018-12-01T13:12:07.394Z,15.47
2018-12-01T13:14:35.773Z,13.10
2018-12-01T13:17:04.384Z,16.10
2018-12-01T13:19:33.472Z,17.70
2018-12-01T13:22:01.910Z,15.53
2018-12-01T13:24:30.321Z,10.67
2018-12-01T13:26:59.236Z,13.27
2018-12-01T13:29:28.675Z,25.10
2018-12-01T13:31:57.865Z,15.53
2018-12-01T13:34:27.098Z,12.60
2018-12-01T13:36:56.202Z,13.87
2018-12-01T13:39:25.820Z,16.30
2018-12-01T13:41:55.640Z,14.53
2018-12-01T13:44:25.912Z,11.13
2018-12-01T13:46:55.713Z,22.83
2018-12-01T13:49:25.727Z,21.33
2018-12-01T13:51:55.862Z,18.77
2018-12-01T13:54:26.470Z,22.60
2018-12-01T13:56:56.011Z,19.60
2018-12-01T13:59:26.013Z,20.80
2018-12-01T14:01:56.930Z,16.50
2018-12-01T14:04:27.432Z,16.03
2018-12-01T14:06:58.713Z,17.20
2018-12-01T14:09:49.609Z,16.13
2018-12-01T14:12:34.250Z,15.93
2018-12-01T14:15:14.910Z,15.43
2018-12-01T14:17:44.610Z,15.33
2018-12-01T14:20:15.893Z,19.20
2018-12-01T14:22:46.567Z,15.13
2018-12-01T14:25:17.189Z,17.90
2018-12-01T14:27:47.439Z,17.10
2018-12-01T14:30:16.589Z,15.20
2018-12-01T14:32:45.806Z,15.20
2018-12-01T14:35:21.303Z,16.13
2018-12-01T14:37:51.317Z,20.00
2018-12-01T14:40:20.586Z,17.90
2018-12-01T14:42:49.748Z,17.63
2018-12-01T14:45:18.949Z,16.10
2018-12-01T14:47:47.479Z,17.53
2018-12-01T14:50:16.624Z,16.17
2018-12-01T14:52:45.970Z,16.63
2018-12-01T14:55:16.445Z,21.67
2018-12-01T14:57:46.163Z,24.10
2018-12-01T15:00:16.689Z,19.90
2018-12-01T15:02:54.196Z,23.57
2018-12-01T15:05:22.839Z,20.93
2018-12-01T15:07:51.596Z,21.87
2018-12-01T15:10:22.614Z,19.63
2018-12-01T15:12:51.714Z,19.83
2018-12-01T15:15:22.759Z,25.73
2018-12-01T15:17:51.201Z,28.80
2018-12-01T15:20:21.482Z,47.47
2018-12-01T15:22:52.381Z,29.87
2018-12-01T15:25:22.589Z,26.00
2018-12-01T15:27:51.065Z,33.53
2018-12-01T15:30:22.770Z,27.57
2018-12-01T15:32:58.838Z,31.20
2018-12-01T15:35:27.911Z,28.10
2018-12-01T15:37:56.645Z,27.23
2018-12-01T15:40:25.643Z,31.23
2018-12-01T15:42:54.282Z,26.47
2018-12-01T15:45:23.185Z,31.70
2018-12-01T15:47:52.484Z,35.40
2018-12-01T15:50:21.948Z,33.93
2018-12-01T15:52:52.938Z,36.90
2018-12-01T15:55:24.235Z,24.17
2018-12-01T15:57:53.425Z,28.47
2018-12-01T16:00:23.562Z,24.77
2018-12-01T16:02:52.855Z,25.77
2018-12-01T16:05:22.330Z,24.67
2018-12-01T16:07:52.950Z,35.97
2018-12-01T16:10:22.441Z,26.63
2018-12-01T16:12:54.281Z,21.63
2018-12-01T16:15:25.403Z,25.90
2018-12-01T16:17:54.568Z,23.27
2018-12-01T16:20:23.817Z,21.13
2018-12-01T16:22:53.364Z,22.13
2018-12-01T16:25:25.324Z,24.13
2018-12-01T16:27:54.113Z,23.37
2018-12-01T16:30:25.506Z,20.17
2018-12-01T16:32:55.632Z,22.73
2018-12-01T16:35:24.144Z,19.73
2018-12-01T16:37:54.574Z,22.20
2018-12-01T16:40:28.011Z,19.10
2018-12-01T16:42:57.539Z,21.93
2018-12-01T16:45:26.904Z,20.50
2018-12-01T16:47:55.636Z,25.63
2018-12-01T16:50:24.264Z,19.37
2018-12-01T16:52:53.101Z,23.33
2018-12-01T16:55:21.607Z,24.63
2018-12-01T16:57:50.027Z,21.07
2018-12-01T17:00:19.807Z,18.27
2018-12-01T17:02:54.651Z,18.77
2018-12-01T17:05:24.577Z,16.83
2018-12-01T17:07:53.726Z,20.17
2018-12-01T17:10:22.849Z,19.20
2018-12-01T17:12:52.817Z,17.80
2018-12-01T17:15:22.676Z,14.43
2018-12-01T17:17:51.327Z,18.20
2018-12-01T17:20:20.280Z,18.20
2018-12-01T17:22:57.918Z,21.20
2018-12-01T17:25:27.775Z,13.97
2018-12-01T17:27:57.645Z,14.23
2018-12-01T17:30:27.123Z,16.37
2018-12-01T17:32:56.193Z,17.90
2018-12-01T17:35:29.647Z,17.20
2018-12-01T17:38:02.654Z,19.90
2018-12-01T17:43:19.643Z,16.60
2018-12-01T17:45:49.626Z,16.33
2018-12-01T17:48:18.940Z,16.87
2018-12-01T17:50:48.164Z,16.07
2018-12-01T17:53:16.942Z,14.57
2018-12-01T17:55:45.944Z,14.30
2018-12-01T17:58:15.110Z,17.27
2018-12-01T18:00:44.062Z,15.57
2018-12-01T18:03:12.772Z,11.40
2018-12-01T18:05:43.738Z,13.80
2018-12-01T18:08:17.959Z,11.77
2018-12-01T18:10:47.955Z,18.37
2018-12-01T18:13:17.257Z,12.93
2018-12-01T18:15:46.356Z,15.70
2018-12-01T18:18:15.502Z,16.57
2018-12-01T18:20:44.244Z,13.00
2018-12-01T18:23:18.175Z,15.43
2018-12-01T18:25:51.184Z,15.23
2018-12-01T18:28:51.884Z,19.17
2018-12-01T18:31:23.419Z,21.90
2018-12-01T18:34:01.349Z,20.77
2018-12-01T18:36:30.581Z,19.07
2018-12-01T18:38:59.799Z,21.50
2018-12-01T18:41:28.613Z,17.30
2018-12-01T18:43:57.626Z,21.27
2018-12-01T18:46:26.129Z,18.83
2018-12-01T18:48:55.744Z,18.73
2018-12-01T18:51:24.651Z,15.30
2018-12-01T18:53:53.258Z,13.90
2018-12-01T18:56:41.805Z,13.53
2018-12-01T18:59:11.094Z,16.20
2018-12-01T19:02:14.351Z,11.80
2018-12-01T19:04:44.483Z,14.13
2018-12-01T19:07:13.896Z,11.90
2018-12-01T19:09:42.850Z,12.77
2018-12-01T19:12:12.457Z,13.90
2018-12-01T19:14:40.930Z,10.77
2018-12-01T19:17:09.697Z,11.60
2018-12-01T19:19:38.118Z,9.93
2018-12-01T19:22:07.761Z,13.77
2018-12-01T19:24:36.234Z,11.07
2018-12-01T19:27:05.451Z,13.93
2018-12-01T19:29:34.014Z,12.90
2018-12-01T19:32:02.907Z,12.37
2018-12-01T19:34:33.395Z,17.03
2018-12-01T19:37:02.505Z,14.67
2018-12-01T19:39:32.743Z,17.00
2018-12-01T19:42:02.809Z,16.83
2018-12-01T19:44:31.968Z,15.90
2018-12-01T19:47:00.937Z,16.97
2018-12-01T19:49:30.426Z,25.23
2018-12-01T19:51:59.806Z,20.07
2018-12-01T19:54:28.354Z,24.20
2018-12-01T19:56:57.829Z,20.13
2018-12-01T19:59:26.207Z,19.47
2018-12-01T20:01:56.024Z,22.07
2018-12-01T20:04:24.786Z,21.17
2018-12-01T20:06:53.434Z,19.50
2018-12-01T20:09:23.383Z,21.33
2018-12-01T20:11:52.493Z,20.00
2018-12-01T20:14:21.302Z,15.57
2018-12-01T20:16:54.320Z,17.67
2018-12-01T20:19:23.366Z,17.93
2018-12-01T20:21:52.056Z,20.20
2018-12-01T20:24:21.121Z,14.23
2018-12-01T20:26:50.161Z,16.73
2018-12-01T20:29:18.839Z,12.93
2018-12-01T20:31:48.220Z,13.27
2018-12-01T20:34:17.353Z,16.63
2018-12-01T20:36:52.279Z,12.43
2018-12-01T20:39:23.622Z,14.70
2018-12-01T20:41:52.613Z,14.17
2018-12-01T20:44:21.176Z,12.87
2018-12-01T20:46:49.601Z,10.87
2018-12-01T20:49:18.877Z,11.33
2018-12-01T20:51:47.302Z,11.47
2018-12-01T20:54:31.675Z,12.50
2018-12-01T20:57:07.462Z,7.93
2018-12-01T20:59:36.965Z,12.40
2018-12-01T21:02:05.657Z,11.30
2018-12-01T21:04:34.366Z,12.93
2018-12-01T21:07:03.329Z,12.87
2018-12-01T21:09:32.479Z,12.63
2018-12-01T21:12:01.399Z,12.77
2018-12-01T21:14:29.837Z,11.73
2018-12-01T21:16:59.303Z,11.03
2018-12-01T21:19:28.670Z,13.90
2018-12-01T21:21:58.002Z,11.80
2018-12-01T21:24:27.600Z,10.60
2018-12-01T21:26:56.270Z,10.63
2018-12-01T21:29:25.256Z,10.40
2018-12-01T21:31:54.215Z,14.80
2018-12-01T21:34:23.781Z,13.83
2018-12-01T21:36:53.215Z,14.23
2018-12-01T21:39:22.360Z,13.50
2018-12-01T21:41:51.311Z,12.47
2018-12-01T21:44:20.624Z,12.37
2018-12-01T21:46:50.123Z,13.53
2018-12-01T21:49:19.450Z,12.27
2018-12-01T21:51:48.283Z,12.00
2018-12-01T21:54:16.729Z,9.30
2018-12-01T21:56:45.640Z,10.77
2018-12-01T21:59:14.473Z,10.13
2018-12-01T22:01:43.857Z,9.43
2018-12-01T22:04:12.578Z,11.83
2018-12-01T22:06:42.110Z,13.03
2018-12-01T22:09:11.019Z,9.17
2018-12-01T22:11:40.397Z,12.83
2018-12-01T22:14:09.042Z,8.30
2018-12-01T22:16:38.346Z,9.03
2018-12-01T22:19:07.342Z,9.23
2018-12-01T22:21:36.060Z,7.47
2018-12-01T22:24:04.712Z,10.43
2018-12-01T22:26:34.102Z,12.80
2018-12-01T22:29:03.004Z,10.00
2018-12-01T22:31:32.538Z,10.00
2018-12-01T22:34:02.100Z,13.23
2018-12-01T22:36:30.785Z,9.80
2018-12-01T22:38:59.355Z,8.73
2018-12-01T22:41:28.670Z,11.20
2018-12-01T22:43:57.420Z,11.30
2018-12-01T22:46:25.862Z,8.47
2018-12-01T22:48:54.594Z,8.90
2018-12-01T22:51:23.469Z,8.27
2018-12-01T22:53:53.319Z,10.27
2018-12-01T22:56:21.982Z,8.70
2018-12-01T22:58:51.089Z,8.47
2018-12-01T23:01:20.234Z,7.63
2018-12-01T23:03:49.800Z,10.33
2018-12-01T23:06:18.601Z,9.90
2018-12-01T23:08:47.664Z,7.80
2018-12-01T23:11:19.430Z,7.97
2018-12-01T23:13:48.582Z,8.47
2018-12-01T23:16:18.032Z,4.33
2018-12-01T23:18:47.034Z,6.93
2018-12-01T23:21:20.487Z,9.90
2018-12-01T23:23:44.985Z,9.60
2018-12-01T23:26:14.018Z,6.83
2018-12-01T23:28:42.757Z,8.20
2018-12-01T23:31:11.423Z,8.63
2018-12-01T23:33:40.039Z,8.90
2018-12-01T23:36:08.776Z,7.73
2018-12-01T23:38:37.529Z,9.07
2018-12-01T23:41:06.586Z,7.40
2018-12-01T23:43:35.520Z,6.13
2018-12-01T23:46:04.384Z,7.47
2018-12-01T23:48:32.849Z,7.47
2018-12-01T23:51:01.489Z,7.97
2018-12-01T23:53:31.165Z,6.70
2018-12-01T23:55:59.974Z,6.00
2018-12-01T23:58:28.342Z,6.53
